sensor_id;sensor_type;location;lat;lon;timestamp;P1;durP1;ratioP1;P2;durP2;ratioP2
42110;SDS011;27766;52.174;5.456;2022-09-21T00:01:20;10.68;;;5.13;;
42110;SDS011;27766;52.174;5.456;2022-09-21T00:03:53;4.10;;;3.70;;
42110;SDS011;27766;52.174;5.456;2022-09-21T00:06:22;7.90;;;4.63;;
42110;SDS011;27766;52.174;5.456;2022-09-21T00:08:51;9.93;;;5.30;;
42110;SDS011;27766;52.174;5.456;2022-09-21T00:11:28;10.68;;;4.70;;
42110;SDS011;27766;52.174;5.456;2022-09-21T00:13:58;8.25;;;4.80;;
42110;SDS011;27766;52.174;5.456;2022-09-21T00:16:28;7.28;;;4.70;;
42110;SDS011;27766;52.174;5.456;2022-09-21T00:18:56;8.07;;;3.90;;
42110;SDS011;27766;52.174;5.456;2022-09-21T00:21:23;6.78;;;3.80;;
42110;SDS011;27766;52.174;5.456;2022-09-21T00:23:51;5.50;;;3.50;;
42110;SDS011;27766;52.174;5.456;2022-09-21T00:26:19;3.85;;;3.20;;
42110;SDS011;27766;52.174;5.456;2022-09-21T00:28:55;6.22;;;4.03;;
42110;SDS011;27766;52.174;5.456;2022-09-21T00:31:24;8.13;;;3.28;;
42110;SDS011;27766;52.174;5.456;2022-09-21T00:33:52;5.50;;;3.60;;
42110;SDS011;27766;52.174;5.456;2022-09-21T00:36:24;6.32;;;4.15;;
42110;SDS011;27766;52.174;5.456;2022-09-21T00:38:56;5.70;;;3.25;;
42110;SDS011;27766;52.174;5.456;2022-09-21T00:41:25;4.38;;;3.13;;
42110;SDS011;27766;52.174;5.456;2022-09-21T00:46:42;4.45;;;3.00;;
42110;SDS011;27766;52.174;5.456;2022-09-21T00:49:12;5.15;;;2.90;;
42110;SDS011;27766;52.174;5.456;2022-09-21T00:51:40;5.68;;;3.28;;
42110;SDS011;27766;52.174;5.456;2022-09-21T00:54:10;7.35;;;3.50;;
42110;SDS011;27766;52.174;5.456;2022-09-21T00:56:43;6.93;;;3.03;;
42110;SDS011;27766;52.174;5.456;2022-09-21T00:59:11;5.50;;;3.30;;
42110;SDS011;27766;52.174;5.456;2022-09-21T01:01:46;4.55;;;3.03;;
42110;SDS011;27766;52.174;5.456;2022-09-21T01:04:13;8.45;;;3.78;;
42110;SDS011;27766;52.174;5.456;2022-09-21T01:06:46;5.82;;;3.78;;
42110;SDS011;27766;52.174;5.456;2022-09-21T01:09:17;5.10;;;3.13;;
42110;SDS011;27766;52.174;5.456;2022-09-21T01:14:40;6.82;;;3.95;;
42110;SDS011;27766;52.174;5.456;2022-09-21T01:28:20;5.50;;;3.85;;
42110;SDS011;27766;52.174;5.456;2022-09-21T01:31:01;4.30;;;3.22;;
42110;SDS011;27766;52.174;5.456;2022-09-21T01:33:35;5.78;;;3.88;;
42110;SDS011;27766;52.174;5.456;2022-09-21T01:36:08;4.00;;;3.35;;
42110;SDS011;27766;52.174;5.456;2022-09-21T01:38:44;8.05;;;3.60;;
42110;SDS011;27766;52.174;5.456;2022-09-21T01:41:18;6.13;;;3.50;;
42110;SDS011;27766;52.174;5.456;2022-09-21T01:43:54;5.38;;;3.25;;
42110;SDS011;27766;52.174;5.456;2022-09-21T01:46:28;4.55;;;3.28;;
42110;SDS011;27766;52.174;5.456;2022-09-21T01:48:58;8.00;;;3.88;;
42110;SDS011;27766;52.174;5.456;2022-09-21T01:51:31;4.80;;;2.85;;
42110;SDS011;27766;52.174;5.456;2022-09-21T01:54:02;4.47;;;2.97;;
42110;SDS011;27766;52.174;5.456;2022-09-21T01:56:54;4.20;;;2.70;;
42110;SDS011;27766;52.174;5.456;2022-09-21T02:02:45;6.55;;;3.60;;
42110;SDS011;27766;52.174;5.456;2022-09-21T02:05:36;8.10;;;4.07;;
42110;SDS011;27766;52.174;5.456;2022-09-21T02:08:04;5.70;;;3.97;;
42110;SDS011;27766;52.174;5.456;2022-09-21T02:10:33;4.32;;;3.42;;
42110;SDS011;27766;52.174;5.456;2022-09-21T02:13:03;4.93;;;3.65;;
42110;SDS011;27766;52.174;5.456;2022-09-21T02:15:36;4.78;;;3.88;;
42110;SDS011;27766;52.174;5.456;2022-09-21T02:21:15;6.60;;;4.38;;
42110;SDS011;27766;52.174;5.456;2022-09-21T02:23:58;6.60;;;4.22;;
42110;SDS011;27766;52.174;5.456;2022-09-21T02:26:31;4.85;;;3.63;;
42110;SDS011;27766;52.174;5.456;2022-09-21T02:29:09;3.95;;;3.22;;
42110;SDS011;27766;52.174;5.456;2022-09-21T02:31:51;6.05;;;3.58;;
42110;SDS011;27766;52.174;5.456;2022-09-21T02:34:29;7.63;;;3.10;;
42110;SDS011;27766;52.174;5.456;2022-09-21T02:37:16;5.57;;;3.55;;
42110;SDS011;27766;52.174;5.456;2022-09-21T02:40:03;10.65;;;4.10;;
42110;SDS011;27766;52.174;5.456;2022-09-21T02:42:37;4.93;;;3.60;;
42110;SDS011;27766;52.174;5.456;2022-09-21T02:47:40;9.10;;;3.42;;
42110;SDS011;27766;52.174;5.456;2022-09-21T02:50:20;5.78;;;3.25;;
42110;SDS011;27766;52.174;5.456;2022-09-21T02:52:52;3.80;;;2.95;;
42110;SDS011;27766;52.174;5.456;2022-09-21T02:55:23;4.88;;;3.40;;
42110;SDS011;27766;52.174;5.456;2022-09-21T02:57:51;4.20;;;2.85;;
42110;SDS011;27766;52.174;5.456;2022-09-21T03:00:21;4.82;;;2.95;;
42110;SDS011;27766;52.174;5.456;2022-09-21T03:02:51;3.67;;;3.22;;
42110;SDS011;27766;52.174;5.456;2022-09-21T03:05:19;5.15;;;2.60;;
42110;SDS011;27766;52.174;5.456;2022-09-21T03:07:47;3.53;;;2.58;;
42110;SDS011;27766;52.174;5.456;2022-09-21T03:10:16;5.45;;;3.33;;
42110;SDS011;27766;52.174;5.456;2022-09-21T03:12:45;3.45;;;3.13;;
42110;SDS011;27766;52.174;5.456;2022-09-21T03:15:12;4.13;;;3.20;;
42110;SDS011;27766;52.174;5.456;2022-09-21T03:17:42;3.35;;;2.80;;
42110;SDS011;27766;52.174;5.456;2022-09-21T03:20:09;5.45;;;3.50;;
42110;SDS011;27766;52.174;5.456;2022-09-21T03:22:36;5.03;;;3.83;;
42110;SDS011;27766;52.174;5.456;2022-09-21T03:25:04;4.05;;;2.92;;
42110;SDS011;27766;52.174;5.456;2022-09-21T03:27:31;6.30;;;3.40;;
42110;SDS011;27766;52.174;5.456;2022-09-21T03:30:00;5.88;;;3.40;;
42110;SDS011;27766;52.174;5.456;2022-09-21T03:32:28;5.53;;;3.28;;
42110;SDS011;27766;52.174;5.456;2022-09-21T03:34:55;3.83;;;3.10;;
42110;SDS011;27766;52.174;5.456;2022-09-21T03:37:22;4.60;;;3.13;;
42110;SDS011;27766;52.174;5.456;2022-09-21T03:39:50;5.20;;;3.30;;
42110;SDS011;27766;52.174;5.456;2022-09-21T03:42:18;14.88;;;3.38;;
42110;SDS011;27766;52.174;5.456;2022-09-21T03:44:47;3.20;;;2.58;;
42110;SDS011;27766;52.174;5.456;2022-09-21T03:47:14;4.00;;;2.75;;
42110;SDS011;27766;52.174;5.456;2022-09-21T03:49:41;5.35;;;3.30;;
42110;SDS011;27766;52.174;5.456;2022-09-21T03:52:08;3.40;;;2.67;;
42110;SDS011;27766;52.174;5.456;2022-09-21T03:54:35;3.92;;;2.83;;
42110;SDS011;27766;52.174;5.456;2022-09-21T03:57:02;4.85;;;3.00;;
42110;SDS011;27766;52.174;5.456;2022-09-21T03:59:30;4.57;;;3.22;;
42110;SDS011;27766;52.174;5.456;2022-09-21T04:01:57;9.50;;;3.40;;
42110;SDS011;27766;52.174;5.456;2022-09-21T04:04:24;5.90;;;3.58;;
42110;SDS011;27766;52.174;5.456;2022-09-21T04:06:51;3.80;;;3.15;;
42110;SDS011;27766;52.174;5.456;2022-09-21T04:09:21;5.20;;;3.30;;
42110;SDS011;27766;52.174;5.456;2022-09-21T04:11:49;6.25;;;3.92;;
42110;SDS011;27766;52.174;5.456;2022-09-21T04:14:19;4.93;;;3.45;;
42110;SDS011;27766;52.174;5.456;2022-09-21T04:16:48;4.85;;;3.20;;
42110;SDS011;27766;52.174;5.456;2022-09-21T04:19:18;5.30;;;3.42;;
42110;SDS011;27766;52.174;5.456;2022-09-21T04:21:49;5.20;;;3.80;;
42110;SDS011;27766;52.174;5.456;2022-09-21T04:24:17;6.72;;;3.83;;
42110;SDS011;27766;52.174;5.456;2022-09-21T04:26:47;6.72;;;3.78;;
42110;SDS011;27766;52.174;5.456;2022-09-21T04:29:15;9.82;;;3.78;;
42110;SDS011;27766;52.174;5.456;2022-09-21T04:31:42;6.65;;;4.03;;
42110;SDS011;27766;52.174;5.456;2022-09-21T04:34:11;7.28;;;3.28;;
42110;SDS011;27766;52.174;5.456;2022-09-21T04:36:39;4.15;;;3.00;;
42110;SDS011;27766;52.174;5.456;2022-09-21T04:39:06;5.03;;;3.58;;
42110;SDS011;27766;52.174;5.456;2022-09-21T04:41:33;7.57;;;4.20;;
42110;SDS011;27766;52.174;5.456;2022-09-21T04:44:00;6.28;;;3.42;;
42110;SDS011;27766;52.174;5.456;2022-09-21T04:46:28;5.68;;;3.65;;
42110;SDS011;27766;52.174;5.456;2022-09-21T04:48:55;4.43;;;3.70;;
42110;SDS011;27766;52.174;5.456;2022-09-21T04:51:22;6.50;;;3.67;;
42110;SDS011;27766;52.174;5.456;2022-09-21T04:53:49;5.18;;;3.78;;
42110;SDS011;27766;52.174;5.456;2022-09-21T04:56:17;4.55;;;3.25;;
42110;SDS011;27766;52.174;5.456;2022-09-21T04:58:51;6.15;;;3.70;;
42110;SDS011;27766;52.174;5.456;2022-09-21T05:01:21;6.72;;;4.50;;
42110;SDS011;27766;52.174;5.456;2022-09-21T05:03:51;9.93;;;4.43;;
42110;SDS011;27766;52.174;5.456;2022-09-21T05:06:19;5.57;;;3.22;;
42110;SDS011;27766;52.174;5.456;2022-09-21T05:08:49;4.22;;;3.53;;
42110;SDS011;27766;52.174;5.456;2022-09-21T05:11:35;5.32;;;3.40;;
42110;SDS011;27766;52.174;5.456;2022-09-21T05:14:02;6.28;;;3.38;;
42110;SDS011;27766;52.174;5.456;2022-09-21T05:16:29;7.10;;;4.38;;
42110;SDS011;27766;52.174;5.456;2022-09-21T05:18:56;8.02;;;4.35;;
42110;SDS011;27766;52.174;5.456;2022-09-21T05:21:23;6.07;;;3.55;;
42110;SDS011;27766;52.174;5.456;2022-09-21T05:23:51;6.75;;;3.63;;
42110;SDS011;27766;52.174;5.456;2022-09-21T05:26:21;7.60;;;4.18;;
42110;SDS011;27766;52.174;5.456;2022-09-21T05:28:49;4.93;;;3.58;;
42110;SDS011;27766;52.174;5.456;2022-09-21T05:31:29;9.50;;;4.18;;
42110;SDS011;27766;52.174;5.456;2022-09-21T05:40:19;3.50;;;2.67;;
42110;SDS011;27766;52.174;5.456;2022-09-21T05:42:48;4.40;;;3.45;;
42110;SDS011;27766;52.174;5.456;2022-09-21T05:45:17;7.43;;;3.78;;
42110;SDS011;27766;52.174;5.456;2022-09-21T05:48:10;7.25;;;3.72;;
42110;SDS011;27766;52.174;5.456;2022-09-21T05:56:20;10.48;;;4.20;;
42110;SDS011;27766;52.174;5.456;2022-09-21T05:59:24;6.80;;;4.22;;
42110;SDS011;27766;52.174;5.456;2022-09-21T06:04:59;11.85;;;4.70;;
42110;SDS011;27766;52.174;5.456;2022-09-21T06:07:28;6.10;;;4.57;;
42110;SDS011;27766;52.174;5.456;2022-09-21T06:09:55;33.80;;;24.83;;
42110;SDS011;27766;52.174;5.456;2022-09-21T06:12:22;14.20;;;10.55;;
42110;SDS011;27766;52.174;5.456;2022-09-21T06:14:49;17.63;;;7.20;;
42110;SDS011;27766;52.174;5.456;2022-09-21T06:17:17;7.80;;;5.80;;
42110;SDS011;27766;52.174;5.456;2022-09-21T06:19:44;25.30;;;16.15;;
42110;SDS011;27766;52.174;5.456;2022-09-21T06:22:11;18.55;;;7.88;;
42110;SDS011;27766;52.174;5.456;2022-09-21T06:24:38;13.30;;;11.73;;
42110;SDS011;27766;52.174;5.456;2022-09-21T06:27:05;10.02;;;7.00;;
42110;SDS011;27766;52.174;5.456;2022-09-21T06:29:33;9.35;;;7.18;;
42110;SDS011;27766;52.174;5.456;2022-09-21T06:32:03;10.70;;;9.02;;
42110;SDS011;27766;52.174;5.456;2022-09-21T06:34:30;12.05;;;8.18;;
42110;SDS011;27766;52.174;5.456;2022-09-21T06:36:57;8.05;;;5.75;;
42110;SDS011;27766;52.174;5.456;2022-09-21T06:39:25;6.53;;;5.35;;
42110;SDS011;27766;52.174;5.456;2022-09-21T06:41:52;12.52;;;6.47;;
42110;SDS011;27766;52.174;5.456;2022-09-21T06:44:22;6.80;;;5.15;;
42110;SDS011;27766;52.174;5.456;2022-09-21T06:46:49;7.88;;;4.72;;
42110;SDS011;27766;52.174;5.456;2022-09-21T06:49:17;6.63;;;5.05;;
42110;SDS011;27766;52.174;5.456;2022-09-21T06:51:44;5.13;;;4.60;;
42110;SDS011;27766;52.174;5.456;2022-09-21T06:54:13;8.32;;;5.50;;
42110;SDS011;27766;52.174;5.456;2022-09-21T06:56:40;10.75;;;5.65;;
42110;SDS011;27766;52.174;5.456;2022-09-21T06:59:09;6.80;;;5.22;;
42110;SDS011;27766;52.174;5.456;2022-09-21T07:01:36;7.78;;;5.10;;
42110;SDS011;27766;52.174;5.456;2022-09-21T07:04:03;9.55;;;5.53;;
42110;SDS011;27766;52.174;5.456;2022-09-21T07:06:32;9.32;;;5.60;;
42110;SDS011;27766;52.174;5.456;2022-09-21T07:09:00;9.57;;;5.38;;
42110;SDS011;27766;52.174;5.456;2022-09-21T07:11:49;11.10;;;5.75;;
42110;SDS011;27766;52.174;5.456;2022-09-21T07:14:17;5.63;;;4.88;;
42110;SDS011;27766;52.174;5.456;2022-09-21T07:16:45;10.30;;;6.00;;
42110;SDS011;27766;52.174;5.456;2022-09-21T07:19:12;5.63;;;4.45;;
42110;SDS011;27766;52.174;5.456;2022-09-21T07:21:39;7.82;;;5.05;;
42110;SDS011;27766;52.174;5.456;2022-09-21T07:24:07;10.45;;;5.78;;
42110;SDS011;27766;52.174;5.456;2022-09-21T07:26:38;6.15;;;4.57;;
42110;SDS011;27766;52.174;5.456;2022-09-21T07:29:05;14.65;;;5.13;;
42110;SDS011;27766;52.174;5.456;2022-09-21T07:31:33;7.55;;;4.95;;
42110;SDS011;27766;52.174;5.456;2022-09-21T07:34:01;7.35;;;4.63;;
42110;SDS011;27766;52.174;5.456;2022-09-21T07:36:28;9.18;;;4.93;;
42110;SDS011;27766;52.174;5.456;2022-09-21T07:38:55;9.02;;;4.88;;
42110;SDS011;27766;52.174;5.456;2022-09-21T07:41:22;10.93;;;4.78;;
42110;SDS011;27766;52.174;5.456;2022-09-21T07:43:50;9.15;;;5.25;;
42110;SDS011;27766;52.174;5.456;2022-09-21T07:46:19;6.32;;;4.00;;
42110;SDS011;27766;52.174;5.456;2022-09-21T07:48:47;11.77;;;4.30;;
42110;SDS011;27766;52.174;5.456;2022-09-21T07:51:22;6.15;;;3.65;;
42110;SDS011;27766;52.174;5.456;2022-09-21T07:53:53;9.15;;;3.72;;
42110;SDS011;27766;52.174;5.456;2022-09-21T07:56:24;9.30;;;3.88;;
42110;SDS011;27766;52.174;5.456;2022-09-21T07:58:52;5.05;;;3.30;;
42110;SDS011;27766;52.174;5.456;2022-09-21T08:01:35;5.40;;;3.70;;
42110;SDS011;27766;52.174;5.456;2022-09-21T08:04:05;9.02;;;4.43;;
42110;SDS011;27766;52.174;5.456;2022-09-21T08:06:34;11.80;;;3.90;;
42110;SDS011;27766;52.174;5.456;2022-09-21T08:09:03;10.40;;;4.18;;
42110;SDS011;27766;52.174;5.456;2022-09-21T08:11:31;5.45;;;3.63;;
42110;SDS011;27766;52.174;5.456;2022-09-21T08:14:00;7.15;;;3.90;;
42110;SDS011;27766;52.174;5.456;2022-09-21T08:16:29;7.82;;;2.95;;
42110;SDS011;27766;52.174;5.456;2022-09-21T08:18:57;7.53;;;3.00;;
42110;SDS011;27766;52.174;5.456;2022-09-21T08:21:24;3.60;;;2.45;;
42110;SDS011;27766;52.174;5.456;2022-09-21T08:23:51;8.68;;;1.90;;
42110;SDS011;27766;52.174;5.456;2022-09-21T08:26:19;4.57;;;2.08;;
42110;SDS011;27766;52.174;5.456;2022-09-21T08:28:48;3.45;;;2.17;;
42110;SDS011;27766;52.174;5.456;2022-09-21T08:31:19;4.30;;;2.15;;
42110;SDS011;27766;52.174;5.456;2022-09-21T08:33:51;3.65;;;1.65;;
42110;SDS011;27766;52.174;5.456;2022-09-21T08:36:20;4.03;;;1.63;;
42110;SDS011;27766;52.174;5.456;2022-09-21T08:38:47;5.85;;;1.77;;
42110;SDS011;27766;52.174;5.456;2022-09-21T08:41:19;3.40;;;2.25;;
42110;SDS011;27766;52.174;5.456;2022-09-21T08:46:24;6.63;;;1.80;;
42110;SDS011;27766;52.174;5.456;2022-09-21T08:51:28;6.50;;;1.85;;
42110;SDS011;27766;52.174;5.456;2022-09-21T08:53:59;13.18;;;3.42;;
42110;SDS011;27766;52.174;5.456;2022-09-21T08:56:32;5.22;;;2.08;;
42110;SDS011;27766;52.174;5.456;2022-09-21T08:59:21;3.95;;;1.45;;
42110;SDS011;27766;52.174;5.456;2022-09-21T09:01:54;7.75;;;1.88;;
42110;SDS011;27766;52.174;5.456;2022-09-21T09:11:08;6.22;;;1.98;;
42110;SDS011;27766;52.174;5.456;2022-09-21T09:22:01;2.40;;;1.05;;
42110;SDS011;27766;52.174;5.456;2022-09-21T09:24:34;4.50;;;0.82;;
42110;SDS011;27766;52.174;5.456;2022-09-21T09:27:29;4.20;;;1.15;;
42110;SDS011;27766;52.174;5.456;2022-09-21T09:30:04;4.25;;;0.98;;
42110;SDS011;27766;52.174;5.456;2022-09-21T09:32:39;5.22;;;1.30;;
42110;SDS011;27766;52.174;5.456;2022-09-21T09:35:26;11.02;;;1.73;;
42110;SDS011;27766;52.174;5.456;2022-09-21T09:37:56;6.68;;;1.00;;
42110;SDS011;27766;52.174;5.456;2022-09-21T09:40:54;5.95;;;1.00;;
42110;SDS011;27766;52.174;5.456;2022-09-21T09:43:47;3.47;;;1.33;;
42110;SDS011;27766;52.174;5.456;2022-09-21T09:49:14;6.38;;;1.48;;
42110;SDS011;27766;52.174;5.456;2022-09-21T09:51:47;1.92;;;0.90;;
42110;SDS011;27766;52.174;5.456;2022-09-21T09:54:16;5.50;;;1.13;;
42110;SDS011;27766;52.174;5.456;2022-09-21T09:56:45;5.40;;;1.65;;
42110;SDS011;27766;52.174;5.456;2022-09-21T09:59:26;4.57;;;1.75;;
42110;SDS011;27766;52.174;5.456;2022-09-21T10:02:09;3.13;;;1.25;;
42110;SDS011;27766;52.174;5.456;2022-09-21T10:04:59;2.90;;;1.02;;
42110;SDS011;27766;52.174;5.456;2022-09-21T10:07:38;11.18;;;1.80;;
42110;SDS011;27766;52.174;5.456;2022-09-21T10:13:00;6.93;;;1.13;;
42110;SDS011;27766;52.174;5.456;2022-09-21T10:15:31;4.28;;;1.05;;
42110;SDS011;27766;52.174;5.456;2022-09-21T10:20:34;7.35;;;1.55;;
42110;SDS011;27766;52.174;5.456;2022-09-21T10:23:01;2.03;;;1.33;;
42110;SDS011;27766;52.174;5.456;2022-09-21T10:25:29;3.05;;;1.52;;
42110;SDS011;27766;52.174;5.456;2022-09-21T10:27:56;5.07;;;1.30;;
42110;SDS011;27766;52.174;5.456;2022-09-21T10:30:30;3.38;;;1.20;;
42110;SDS011;27766;52.174;5.456;2022-09-21T10:33:20;4.70;;;1.20;;
42110;SDS011;27766;52.174;5.456;2022-09-21T10:35:51;5.32;;;1.30;;
42110;SDS011;27766;52.174;5.456;2022-09-21T10:38:19;2.83;;;1.20;;
42110;SDS011;27766;52.174;5.456;2022-09-21T10:40:53;4.28;;;1.08;;
42110;SDS011;27766;52.174;5.456;2022-09-21T10:43:32;9.38;;;1.45;;
42110;SDS011;27766;52.174;5.456;2022-09-21T10:46:05;4.30;;;1.02;;
42110;SDS011;27766;52.174;5.456;2022-09-21T10:48:32;1.73;;;0.60;;
42110;SDS011;27766;52.174;5.456;2022-09-21T10:51:00;7.60;;;1.55;;
42110;SDS011;27766;52.174;5.456;2022-09-21T10:53:32;4.43;;;1.52;;
42110;SDS011;27766;52.174;5.456;2022-09-21T10:56:02;6.82;;;1.08;;
42110;SDS011;27766;52.174;5.456;2022-09-21T10:59:08;2.80;;;1.27;;
42110;SDS011;27766;52.174;5.456;2022-09-21T11:01:48;2.33;;;1.00;;
42110;SDS011;27766;52.174;5.456;2022-09-21T11:04:19;6.10;;;1.10;;
42110;SDS011;27766;52.174;5.456;2022-09-21T11:09:56;4.57;;;1.30;;
42110;SDS011;27766;52.174;5.456;2022-09-21T11:15:14;2.95;;;0.95;;
42110;SDS011;27766;52.174;5.456;2022-09-21T11:18:05;2.20;;;0.70;;
42110;SDS011;27766;52.174;5.456;2022-09-21T11:28:31;1.58;;;0.85;;
42110;SDS011;27766;52.174;5.456;2022-09-21T11:42:44;2.50;;;0.52;;
42110;SDS011;27766;52.174;5.456;2022-09-21T11:47:49;1.95;;;0.77;;
42110;SDS011;27766;52.174;5.456;2022-09-21T11:58:33;5.55;;;1.45;;
42110;SDS011;27766;52.174;5.456;2022-09-21T12:07:14;4.72;;;0.90;;
42110;SDS011;27766;52.174;5.456;2022-09-21T12:09:56;3.15;;;0.93;;
42110;SDS011;27766;52.174;5.456;2022-09-21T12:12:48;1.63;;;0.50;;
42110;SDS011;27766;52.174;5.456;2022-09-21T12:18:25;1.02;;;0.52;;
42110;SDS011;27766;52.174;5.456;2022-09-21T12:20:59;2.00;;;0.60;;
42110;SDS011;27766;52.174;5.456;2022-09-21T12:23:40;1.95;;;0.77;;
42110;SDS011;27766;52.174;5.456;2022-09-21T12:26:14;5.38;;;1.48;;
42110;SDS011;27766;52.174;5.456;2022-09-21T12:28:48;0.68;;;0.52;;
42110;SDS011;27766;52.174;5.456;2022-09-21T12:31:23;1.38;;;0.60;;
42110;SDS011;27766;52.174;5.456;2022-09-21T12:33:56;1.60;;;0.60;;
42110;SDS011;27766;52.174;5.456;2022-09-21T12:36:34;2.42;;;0.50;;
42110;SDS011;27766;52.174;5.456;2022-09-21T12:39:22;1.95;;;0.65;;
42110;SDS011;27766;52.174;5.456;2022-09-21T12:42:00;9.68;;;1.25;;
42110;SDS011;27766;52.174;5.456;2022-09-21T12:44:33;2.05;;;0.75;;
42110;SDS011;27766;52.174;5.456;2022-09-21T12:47:40;0.98;;;0.60;;
42110;SDS011;27766;52.174;5.456;2022-09-21T12:50:18;2.95;;;1.00;;
42110;SDS011;27766;52.174;5.456;2022-09-21T12:52:49;1.67;;;0.57;;
42110;SDS011;27766;52.174;5.456;2022-09-21T12:55:37;4.82;;;0.75;;
42110;SDS011;27766;52.174;5.456;2022-09-21T12:58:58;5.75;;;0.65;;
42110;SDS011;27766;52.174;5.456;2022-09-21T13:01:21;0.90;;;0.40;;
42110;SDS011;27766;52.174;5.456;2022-09-21T13:04:11;2.88;;;0.63;;
42110;SDS011;27766;52.174;5.456;2022-09-21T13:09:16;1.77;;;0.75;;
42110;SDS011;27766;52.174;5.456;2022-09-21T13:11:54;4.07;;;0.57;;
42110;SDS011;27766;52.174;5.456;2022-09-21T13:14:25;2.22;;;0.85;;
42110;SDS011;27766;52.174;5.456;2022-09-21T13:16:56;2.13;;;0.98;;
42110;SDS011;27766;52.174;5.456;2022-09-21T13:19:28;2.28;;;1.00;;
42110;SDS011;27766;52.174;5.456;2022-09-21T13:30:29;2.90;;;0.80;;
42110;SDS011;27766;52.174;5.456;2022-09-21T13:32:59;1.55;;;0.90;;
42110;SDS011;27766;52.174;5.456;2022-09-21T13:38:23;2.35;;;0.77;;
42110;SDS011;27766;52.174;5.456;2022-09-21T13:40:56;2.15;;;0.80;;
42110;SDS011;27766;52.174;5.456;2022-09-21T13:43:43;1.08;;;0.60;;
42110;SDS011;27766;52.174;5.456;2022-09-21T13:54:44;3.30;;;0.77;;
42110;SDS011;27766;52.174;5.456;2022-09-21T13:57:17;2.90;;;1.50;;
42110;SDS011;27766;52.174;5.456;2022-09-21T13:59:47;4.65;;;0.80;;
42110;SDS011;27766;52.174;5.456;2022-09-21T14:05:29;2.03;;;0.80;;
42110;SDS011;27766;52.174;5.456;2022-09-21T14:10:51;1.17;;;0.52;;
42110;SDS011;27766;52.174;5.456;2022-09-21T14:13:35;4.13;;;0.60;;
42110;SDS011;27766;52.174;5.456;2022-09-21T14:19:00;0.73;;;0.40;;
42110;SDS011;27766;52.174;5.456;2022-09-21T14:24:34;2.80;;;0.73;;
42110;SDS011;27766;52.174;5.456;2022-09-21T14:27:25;3.28;;;0.88;;
42110;SDS011;27766;52.174;5.456;2022-09-21T14:30:00;1.33;;;0.70;;
42110;SDS011;27766;52.174;5.456;2022-09-21T14:32:34;2.15;;;0.60;;
42110;SDS011;27766;52.174;5.456;2022-09-21T14:35:16;4.90;;;0.95;;
42110;SDS011;27766;52.174;5.456;2022-09-21T14:37:51;0.98;;;0.60;;
42110;SDS011;27766;52.174;5.456;2022-09-21T14:40:26;1.23;;;0.40;;
42110;SDS011;27766;52.174;5.456;2022-09-21T14:42:58;1.15;;;0.43;;
42110;SDS011;27766;52.174;5.456;2022-09-21T14:51:22;2.35;;;0.85;;
42110;SDS011;27766;52.174;5.456;2022-09-21T14:59:39;2.42;;;0.63;;
42110;SDS011;27766;52.174;5.456;2022-09-21T15:02:18;3.72;;;1.20;;
42110;SDS011;27766;52.174;5.456;2022-09-21T15:08:10;1.17;;;0.77;;
42110;SDS011;27766;52.174;5.456;2022-09-21T15:13:50;0.95;;;0.60;;
42110;SDS011;27766;52.174;5.456;2022-09-21T15:19:14;1.85;;;0.73;;
42110;SDS011;27766;52.174;5.456;2022-09-21T15:21:51;3.67;;;1.13;;
42110;SDS011;27766;52.174;5.456;2022-09-21T15:24:27;1.27;;;0.60;;
42110;SDS011;27766;52.174;5.456;2022-09-21T15:27:01;1.73;;;0.73;;
42110;SDS011;27766;52.174;5.456;2022-09-21T15:29:38;4.35;;;0.68;;
42110;SDS011;27766;52.174;5.456;2022-09-21T15:32:08;2.80;;;1.00;;
42110;SDS011;27766;52.174;5.456;2022-09-21T15:34:36;4.95;;;1.20;;
42110;SDS011;27766;52.174;5.456;2022-09-21T15:37:13;3.90;;;0.90;;
42110;SDS011;27766;52.174;5.456;2022-09-21T15:39:43;2.33;;;0.50;;
42110;SDS011;27766;52.174;5.456;2022-09-21T15:42:17;0.82;;;0.80;;
42110;SDS011;27766;52.174;5.456;2022-09-21T15:44:53;6.93;;;1.02;;
42110;SDS011;27766;52.174;5.456;2022-09-21T15:47:36;3.35;;;1.00;;
42110;SDS011;27766;52.174;5.456;2022-09-21T15:50:10;1.42;;;0.77;;
42110;SDS011;27766;52.174;5.456;2022-09-21T15:52:40;2.47;;;0.90;;
42110;SDS011;27766;52.174;5.456;2022-09-21T15:55:14;4.15;;;1.00;;
42110;SDS011;27766;52.174;5.456;2022-09-21T15:57:48;2.22;;;1.00;;
42110;SDS011;27766;52.174;5.456;2022-09-21T16:00:25;2.75;;;0.95;;
42110;SDS011;27766;52.174;5.456;2022-09-21T16:03:05;2.15;;;0.75;;
42110;SDS011;27766;52.174;5.456;2022-09-21T16:05:43;2.53;;;1.00;;
42110;SDS011;27766;52.174;5.456;2022-09-21T16:08:26;1.83;;;0.68;;
42110;SDS011;27766;52.174;5.456;2022-09-21T16:13:42;6.35;;;0.55;;
42110;SDS011;27766;52.174;5.456;2022-09-21T16:16:30;1.50;;;0.75;;
42110;SDS011;27766;52.174;5.456;2022-09-21T16:18:57;5.38;;;0.80;;
42110;SDS011;27766;52.174;5.456;2022-09-21T16:21:29;4.47;;;0.88;;
42110;SDS011;27766;52.174;5.456;2022-09-21T16:24:09;1.02;;;0.60;;
42110;SDS011;27766;52.174;5.456;2022-09-21T16:26:54;1.83;;;0.77;;
42110;SDS011;27766;52.174;5.456;2022-09-21T16:29:24;0.98;;;0.80;;
42110;SDS011;27766;52.174;5.456;2022-09-21T16:34:49;3.13;;;0.70;;
42110;SDS011;27766;52.174;5.456;2022-09-21T16:37:24;1.20;;;0.75;;
42110;SDS011;27766;52.174;5.456;2022-09-21T16:39:55;1.33;;;0.80;;
42110;SDS011;27766;52.174;5.456;2022-09-21T16:42:26;4.78;;;0.90;;
42110;SDS011;27766;52.174;5.456;2022-09-21T16:45:00;2.83;;;1.00;;
42110;SDS011;27766;52.174;5.456;2022-09-21T16:47:36;1.33;;;0.75;;
42110;SDS011;27766;52.174;5.456;2022-09-21T16:50:10;2.03;;;0.88;;
42110;SDS011;27766;52.174;5.456;2022-09-21T16:52:38;3.22;;;0.90;;
42110;SDS011;27766;52.174;5.456;2022-09-21T16:55:06;5.50;;;1.10;;
42110;SDS011;27766;52.174;5.456;2022-09-21T16:57:33;4.68;;;1.25;;
42110;SDS011;27766;52.174;5.456;2022-09-21T17:00:01;6.45;;;1.20;;
42110;SDS011;27766;52.174;5.456;2022-09-21T17:02:31;2.03;;;0.93;;
42110;SDS011;27766;52.174;5.456;2022-09-21T17:04:59;1.42;;;0.77;;
42110;SDS011;27766;52.174;5.456;2022-09-21T17:07:27;4.35;;;1.67;;
42110;SDS011;27766;52.174;5.456;2022-09-21T17:09:54;2.70;;;1.30;;
42110;SDS011;27766;52.174;5.456;2022-09-21T17:12:21;6.70;;;1.40;;
42110;SDS011;27766;52.174;5.456;2022-09-21T17:14:52;2.42;;;1.00;;
42110;SDS011;27766;52.174;5.456;2022-09-21T17:17:23;8.25;;;1.20;;
42110;SDS011;27766;52.174;5.456;2022-09-21T17:19:52;3.72;;;1.38;;
42110;SDS011;27766;52.174;5.456;2022-09-21T17:22:23;3.95;;;1.30;;
42110;SDS011;27766;52.174;5.456;2022-09-21T17:24:51;7.82;;;1.08;;
42110;SDS011;27766;52.174;5.456;2022-09-21T17:27:22;3.05;;;1.27;;
42110;SDS011;27766;52.174;5.456;2022-09-21T17:29:52;5.65;;;1.45;;
42110;SDS011;27766;52.174;5.456;2022-09-21T17:32:21;1.92;;;1.50;;
42110;SDS011;27766;52.174;5.456;2022-09-21T17:34:53;7.18;;;1.90;;
42110;SDS011;27766;52.174;5.456;2022-09-21T17:37:27;9.57;;;1.80;;
42110;SDS011;27766;52.174;5.456;2022-09-21T17:39:58;4.32;;;1.92;;
42110;SDS011;27766;52.174;5.456;2022-09-21T17:42:25;3.90;;;2.15;;
42110;SDS011;27766;52.174;5.456;2022-09-21T17:47:47;4.10;;;2.38;;
42110;SDS011;27766;52.174;5.456;2022-09-21T17:50:24;8.07;;;2.28;;
42110;SDS011;27766;52.174;5.456;2022-09-21T17:52:53;4.55;;;1.80;;
42110;SDS011;27766;52.174;5.456;2022-09-21T17:55:44;9.05;;;2.50;;
42110;SDS011;27766;52.174;5.456;2022-09-21T17:58:20;6.38;;;2.47;;
42110;SDS011;27766;52.174;5.456;2022-09-21T18:03:31;5.75;;;2.70;;
42110;SDS011;27766;52.174;5.456;2022-09-21T18:06:02;7.35;;;3.28;;
42110;SDS011;27766;52.174;5.456;2022-09-21T18:08:30;16.63;;;3.55;;
42110;SDS011;27766;52.174;5.456;2022-09-21T18:20:05;11.20;;;5.57;;
42110;SDS011;27766;52.174;5.456;2022-09-21T18:25:50;9.38;;;5.13;;
42110;SDS011;27766;52.174;5.456;2022-09-21T18:28:40;12.27;;;5.65;;
42110;SDS011;27766;52.174;5.456;2022-09-21T18:37:05;14.98;;;6.57;;